sensor_id;sensor_type;location;lat;lon;timestamp;P1;durP1;ratioP1;P2;durP2;ratioP2
4106;SDS011;21906;50.812;7.132;2023-10-09T00:01:17;15.73;;;10.23;;
4106;SDS011;21906;50.812;7.132;2023-10-09T00:03:43;20.53;;;10.93;;
4106;SDS011;21906;50.812;7.132;2023-10-09T00:06:10;16.13;;;10.77;;
4106;SDS011;21906;50.812;7.132;2023-10-09T00:08:39;14.80;;;10.40;;
4106;SDS011;21906;50.812;7.132;2023-10-09T00:11:09;17.87;;;10.20;;
4106;SDS011;21906;50.812;7.132;2023-10-09T00:13:42;14.33;;;10.13;;
4106;SDS011;21906;50.812;7.132;2023-10-09T00:16:14;16.30;;;10.30;;
4106;SDS011;21906;50.812;7.132;2023-10-09T00:18:42;10.00;;;9.00;;
4106;SDS011;21906;50.812;7.132;2023-10-09T00:21:15;16.13;;;10.40;;
4106;SDS011;21906;50.812;7.132;2023-10-09T00:23:41;14.13;;;10.03;;
4106;SDS011;21906;50.812;7.132;2023-10-09T00:26:09;13.90;;;9.97;;
4106;SDS011;21906;50.812;7.132;2023-10-09T00:28:37;12.63;;;10.27;;
4106;SDS011;21906;50.812;7.132;2023-10-09T00:31:09;17.27;;;10.80;;
4106;SDS011;21906;50.812;7.132;2023-10-09T00:33:41;16.53;;;9.90;;
4106;SDS011;21906;50.812;7.132;2023-10-09T00:36:08;13.13;;;9.80;;
4106;SDS011;21906;50.812;7.132;2023-10-09T00:38:43;12.90;;;8.80;;
4106;SDS011;21906;50.812;7.132;2023-10-09T00:41:15;12.43;;;9.40;;
4106;SDS011;21906;50.812;7.132;2023-10-09T00:43:50;15.70;;;9.80;;
4106;SDS011;21906;50.812;7.132;2023-10-09T00:46:17;13.87;;;9.77;;
4106;SDS011;21906;50.812;7.132;2023-10-09T00:48:44;13.53;;;9.77;;
4106;SDS011;21906;50.812;7.132;2023-10-09T00:51:13;14.03;;;10.00;;
4106;SDS011;21906;50.812;7.132;2023-10-09T00:54:05;13.10;;;9.80;;
4106;SDS011;21906;50.812;7.132;2023-10-09T00:56:39;18.30;;;9.67;;
4106;SDS011;21906;50.812;7.132;2023-10-09T00:59:08;13.00;;;10.27;;
4106;SDS011;21906;50.812;7.132;2023-10-09T01:01:45;14.10;;;10.10;;
4106;SDS011;21906;50.812;7.132;2023-10-09T01:04:43;11.80;;;9.70;;
4106;SDS011;21906;50.812;7.132;2023-10-09T01:07:09;13.43;;;10.00;;
4106;SDS011;21906;50.812;7.132;2023-10-09T01:09:45;11.20;;;9.10;;
4106;SDS011;21906;50.812;7.132;2023-10-09T01:12:14;13.60;;;9.77;;
4106;SDS011;21906;50.812;7.132;2023-10-09T01:14:43;10.30;;;8.87;;
4106;SDS011;21906;50.812;7.132;2023-10-09T01:17:09;12.00;;;9.03;;
4106;SDS011;21906;50.812;7.132;2023-10-09T01:19:37;12.40;;;9.63;;
4106;SDS011;21906;50.812;7.132;2023-10-09T01:22:03;14.10;;;9.60;;
4106;SDS011;21906;50.812;7.132;2023-10-09T01:24:41;11.60;;;9.13;;
4106;SDS011;21906;50.812;7.132;2023-10-09T01:27:07;12.07;;;8.60;;
4106;SDS011;21906;50.812;7.132;2023-10-09T01:29:39;14.30;;;9.77;;
4106;SDS011;21906;50.812;7.132;2023-10-09T01:32:06;15.57;;;9.37;;
4106;SDS011;21906;50.812;7.132;2023-10-09T01:34:41;12.20;;;9.73;;
4106;SDS011;21906;50.812;7.132;2023-10-09T01:37:14;13.10;;;9.60;;
4106;SDS011;21906;50.812;7.132;2023-10-09T01:39:54;13.63;;;10.13;;
4106;SDS011;21906;50.812;7.132;2023-10-09T01:42:24;15.07;;;9.60;;
4106;SDS011;21906;50.812;7.132;2023-10-09T01:44:59;10.83;;;8.90;;
4106;SDS011;21906;50.812;7.132;2023-10-09T01:47:35;12.43;;;9.60;;
4106;SDS011;21906;50.812;7.132;2023-10-09T01:50:03;10.30;;;9.20;;
4106;SDS011;21906;50.812;7.132;2023-10-09T01:52:30;11.00;;;8.73;;
4106;SDS011;21906;50.812;7.132;2023-10-09T01:54:56;9.80;;;8.47;;
4106;SDS011;21906;50.812;7.132;2023-10-09T01:57:27;11.03;;;9.20;;
4106;SDS011;21906;50.812;7.132;2023-10-09T01:59:55;11.00;;;9.00;;
4106;SDS011;21906;50.812;7.132;2023-10-09T02:02:23;10.83;;;8.70;;
4106;SDS011;21906;50.812;7.132;2023-10-09T02:04:52;14.23;;;9.50;;
4106;SDS011;21906;50.812;7.132;2023-10-09T02:07:19;12.20;;;9.43;;
4106;SDS011;21906;50.812;7.132;2023-10-09T02:09:52;13.80;;;9.13;;
4106;SDS011;21906;50.812;7.132;2023-10-09T02:12:19;12.03;;;9.47;;
4106;SDS011;21906;50.812;7.132;2023-10-09T02:14:47;11.00;;;8.60;;
4106;SDS011;21906;50.812;7.132;2023-10-09T02:17:12;17.20;;;10.30;;
4106;SDS011;21906;50.812;7.132;2023-10-09T02:19:45;10.50;;;9.00;;
4106;SDS011;21906;50.812;7.132;2023-10-09T02:22:14;16.90;;;9.60;;
4106;SDS011;21906;50.812;7.132;2023-10-09T02:24:41;8.90;;;8.00;;
4106;SDS011;21906;50.812;7.132;2023-10-09T02:27:13;12.43;;;9.00;;
4106;SDS011;21906;50.812;7.132;2023-10-09T02:29:44;10.67;;;8.77;;
4106;SDS011;21906;50.812;7.132;2023-10-09T02:32:13;11.53;;;8.70;;
4106;SDS011;21906;50.812;7.132;2023-10-09T02:34:41;11.33;;;9.30;;
4106;SDS011;21906;50.812;7.132;2023-10-09T02:37:11;12.80;;;8.57;;
4106;SDS011;21906;50.812;7.132;2023-10-09T02:39:38;10.47;;;8.80;;
4106;SDS011;21906;50.812;7.132;2023-10-09T02:42:13;12.67;;;9.00;;
4106;SDS011;21906;50.812;7.132;2023-10-09T02:44:39;11.50;;;9.27;;
4106;SDS011;21906;50.812;7.132;2023-10-09T02:47:11;13.93;;;9.17;;
4106;SDS011;21906;50.812;7.132;2023-10-09T02:49:45;11.63;;;8.23;;
4106;SDS011;21906;50.812;7.132;2023-10-09T02:52:13;10.30;;;8.80;;
4106;SDS011;21906;50.812;7.132;2023-10-09T02:54:43;10.93;;;8.20;;
4106;SDS011;21906;50.812;7.132;2023-10-09T02:57:12;11.73;;;8.63;;
4106;SDS011;21906;50.812;7.132;2023-10-09T02:59:47;11.57;;;9.20;;
4106;SDS011;21906;50.812;7.132;2023-10-09T03:02:16;10.93;;;8.73;;
4106;SDS011;21906;50.812;7.132;2023-10-09T03:04:45;11.20;;;7.90;;
4106;SDS011;21906;50.812;7.132;2023-10-09T03:07:10;12.07;;;8.53;;
4106;SDS011;21906;50.812;7.132;2023-10-09T03:09:38;9.90;;;8.80;;
4106;SDS011;21906;50.812;7.132;2023-10-09T03:12:05;11.77;;;8.60;;
4106;SDS011;21906;50.812;7.132;2023-10-09T03:14:36;10.87;;;8.40;;
4106;SDS011;21906;50.812;7.132;2023-10-09T03:17:06;11.67;;;8.23;;
4106;SDS011;21906;50.812;7.132;2023-10-09T03:19:36;12.70;;;8.30;;
4106;SDS011;21906;50.812;7.132;2023-10-09T03:22:08;11.37;;;8.10;;
4106;SDS011;21906;50.812;7.132;2023-10-09T03:24:37;9.80;;;8.70;;
4106;SDS011;21906;50.812;7.132;2023-10-09T03:27:04;10.40;;;7.77;;
4106;SDS011;21906;50.812;7.132;2023-10-09T03:29:30;10.40;;;7.87;;
4106;SDS011;21906;50.812;7.132;2023-10-09T03:31:56;11.83;;;7.77;;
4106;SDS011;21906;50.812;7.132;2023-10-09T03:34:22;13.90;;;9.03;;
4106;SDS011;21906;50.812;7.132;2023-10-09T03:36:49;11.13;;;8.67;;
4106;SDS011;21906;50.812;7.132;2023-10-09T03:39:24;12.63;;;7.83;;
4106;SDS011;21906;50.812;7.132;2023-10-09T03:41:59;8.13;;;7.33;;
4106;SDS011;21906;50.812;7.132;2023-10-09T03:44:25;12.07;;;7.87;;
4106;SDS011;21906;50.812;7.132;2023-10-09T03:46:54;9.80;;;7.77;;
4106;SDS011;21906;50.812;7.132;2023-10-09T03:49:20;12.67;;;7.37;;
4106;SDS011;21906;50.812;7.132;2023-10-09T03:51:49;8.20;;;7.40;;
4106;SDS011;21906;50.812;7.132;2023-10-09T03:54:15;8.97;;;7.57;;
4106;SDS011;21906;50.812;7.132;2023-10-09T03:56:45;10.83;;;8.33;;
4106;SDS011;21906;50.812;7.132;2023-10-09T03:59:20;11.73;;;8.00;;
4106;SDS011;21906;50.812;7.132;2023-10-09T04:01:46;11.33;;;8.23;;
4106;SDS011;21906;50.812;7.132;2023-10-09T04:04:14;8.47;;;7.30;;
4106;SDS011;21906;50.812;7.132;2023-10-09T04:06:39;8.20;;;7.40;;
4106;SDS011;21906;50.812;7.132;2023-10-09T04:09:09;7.87;;;7.10;;
4106;SDS011;21906;50.812;7.132;2023-10-09T04:11:50;8.67;;;7.40;;
4106;SDS011;21906;50.812;7.132;2023-10-09T04:14:35;14.13;;;8.47;;
4106;SDS011;21906;50.812;7.132;2023-10-09T04:17:30;9.77;;;7.70;;
4106;SDS011;21906;50.812;7.132;2023-10-09T04:19:59;8.70;;;7.80;;
4106;SDS011;21906;50.812;7.132;2023-10-09T04:22:43;12.23;;;8.20;;
4106;SDS011;21906;50.812;7.132;2023-10-09T04:25:25;8.33;;;7.53;;
4106;SDS011;21906;50.812;7.132;2023-10-09T04:27:52;8.57;;;7.67;;
4106;SDS011;21906;50.812;7.132;2023-10-09T04:30:18;10.33;;;7.47;;
4106;SDS011;21906;50.812;7.132;2023-10-09T04:32:44;8.83;;;7.60;;
4106;SDS011;21906;50.812;7.132;2023-10-09T04:35:16;11.07;;;9.10;;
4106;SDS011;21906;50.812;7.132;2023-10-09T04:37:47;8.90;;;7.27;;
4106;SDS011;21906;50.812;7.132;2023-10-09T04:40:33;10.47;;;7.67;;
4106;SDS011;21906;50.812;7.132;2023-10-09T04:43:11;8.83;;;7.80;;
4106;SDS011;21906;50.812;7.132;2023-10-09T04:45:45;12.47;;;7.37;;
4106;SDS011;21906;50.812;7.132;2023-10-09T04:48:32;9.77;;;7.30;;
4106;SDS011;21906;50.812;7.132;2023-10-09T04:50:58;7.43;;;6.70;;
4106;SDS011;21906;50.812;7.132;2023-10-09T04:53:57;11.90;;;7.50;;
4106;SDS011;21906;50.812;7.132;2023-10-09T04:56:41;7.10;;;6.37;;
4106;SDS011;21906;50.812;7.132;2023-10-09T04:59:19;8.30;;;6.70;;
4106;SDS011;21906;50.812;7.132;2023-10-09T05:01:50;8.67;;;7.53;;
4106;SDS011;21906;50.812;7.132;2023-10-09T05:04:25;13.50;;;8.17;;
4106;SDS011;21906;50.812;7.132;2023-10-09T05:07:05;9.33;;;7.30;;
4106;SDS011;21906;50.812;7.132;2023-10-09T05:10:01;8.43;;;7.40;;
4106;SDS011;21906;50.812;7.132;2023-10-09T05:12:40;10.07;;;8.00;;
4106;SDS011;21906;50.812;7.132;2023-10-09T05:15:12;11.83;;;7.83;;
4106;SDS011;21906;50.812;7.132;2023-10-09T05:17:39;10.63;;;8.33;;
4106;SDS011;21906;50.812;7.132;2023-10-09T05:20:05;9.47;;;7.70;;
4106;SDS011;21906;50.812;7.132;2023-10-09T05:22:54;8.37;;;7.20;;
4106;SDS011;21906;50.812;7.132;2023-10-09T05:25:26;7.70;;;6.87;;
4106;SDS011;21906;50.812;7.132;2023-10-09T05:28:10;10.70;;;7.33;;
4106;SDS011;21906;50.812;7.132;2023-10-09T05:30:57;8.60;;;7.57;;
4106;SDS011;21906;50.812;7.132;2023-10-09T05:33:55;8.70;;;6.80;;
4106;SDS011;21906;50.812;7.132;2023-10-09T05:36:26;7.60;;;6.90;;
4106;SDS011;21906;50.812;7.132;2023-10-09T05:38:52;7.70;;;7.00;;
4106;SDS011;21906;50.812;7.132;2023-10-09T05:41:26;7.53;;;6.73;;
4106;SDS011;21906;50.812;7.132;2023-10-09T05:44:11;8.87;;;7.10;;
4106;SDS011;21906;50.812;7.132;2023-10-09T05:46:55;7.70;;;7.00;;
4106;SDS011;21906;50.812;7.132;2023-10-09T05:49:50;7.73;;;7.00;;
4106;SDS011;21906;50.812;7.132;2023-10-09T05:52:48;9.83;;;7.00;;
4106;SDS011;21906;50.812;7.132;2023-10-09T05:55:24;12.17;;;8.27;;
4106;SDS011;21906;50.812;7.132;2023-10-09T05:58:09;7.40;;;6.60;;
4106;SDS011;21906;50.812;7.132;2023-10-09T06:00:53;12.50;;;8.23;;
4106;SDS011;21906;50.812;7.132;2023-10-09T06:03:37;7.80;;;7.00;;
4106;SDS011;21906;50.812;7.132;2023-10-09T06:06:19;8.67;;;7.67;;
4106;SDS011;21906;50.812;7.132;2023-10-09T06:09:03;10.03;;;7.57;;
4106;SDS011;21906;50.812;7.132;2023-10-09T06:11:36;8.10;;;7.30;;
4106;SDS011;21906;50.812;7.132;2023-10-09T06:14:01;7.87;;;7.07;;
4106;SDS011;21906;50.812;7.132;2023-10-09T06:16:30;14.37;;;7.70;;
4106;SDS011;21906;50.812;7.132;2023-10-09T06:19:24;8.30;;;7.50;;
4106;SDS011;21906;50.812;7.132;2023-10-09T06:21:50;11.00;;;7.40;;
4106;SDS011;21906;50.812;7.132;2023-10-09T06:24:35;8.33;;;7.00;;
4106;SDS011;21906;50.812;7.132;2023-10-09T06:27:07;11.80;;;7.10;;
4106;SDS011;21906;50.812;7.132;2023-10-09T06:29:37;10.67;;;7.27;;
4106;SDS011;21906;50.812;7.132;2023-10-09T06:32:15;7.90;;;7.10;;
4106;SDS011;21906;50.812;7.132;2023-10-09T06:34:51;9.40;;;7.90;;
4106;SDS011;21906;50.812;7.132;2023-10-09T06:37:18;7.90;;;7.23;;
4106;SDS011;21906;50.812;7.132;2023-10-09T06:39:50;7.63;;;6.93;;
4106;SDS011;21906;50.812;7.132;2023-10-09T06:42:26;8.67;;;7.00;;
4106;SDS011;21906;50.812;7.132;2023-10-09T06:47:31;9.23;;;7.33;;
4106;SDS011;21906;50.812;7.132;2023-10-09T06:50:09;10.30;;;7.77;;
4106;SDS011;21906;50.812;7.132;2023-10-09T06:52:45;10.93;;;7.70;;
4106;SDS011;21906;50.812;7.132;2023-10-09T06:55:23;8.23;;;7.17;;
4106;SDS011;21906;50.812;7.132;2023-10-09T06:58:09;10.50;;;7.80;;
4106;SDS011;21906;50.812;7.132;2023-10-09T07:00:40;9.83;;;7.50;;
4106;SDS011;21906;50.812;7.132;2023-10-09T07:03:25;8.87;;;7.97;;
4106;SDS011;21906;50.812;7.132;2023-10-09T07:06:17;8.13;;;7.43;;
4106;SDS011;21906;50.812;7.132;2023-10-09T07:08:50;9.73;;;8.03;;
4106;SDS011;21906;50.812;7.132;2023-10-09T07:11:31;15.80;;;8.43;;
4106;SDS011;21906;50.812;7.132;2023-10-09T07:14:11;8.90;;;7.23;;
4106;SDS011;21906;50.812;7.132;2023-10-09T07:19:43;14.27;;;7.90;;
4106;SDS011;21906;50.812;7.132;2023-10-09T07:22:12;10.07;;;8.07;;
4106;SDS011;21906;50.812;7.132;2023-10-09T07:24:48;14.80;;;8.07;;
4106;SDS011;21906;50.812;7.132;2023-10-09T07:27:26;8.63;;;7.50;;
4106;SDS011;21906;50.812;7.132;2023-10-09T07:30:14;10.87;;;7.90;;
4106;SDS011;21906;50.812;7.132;2023-10-09T07:33:03;9.43;;;8.03;;
4106;SDS011;21906;50.812;7.132;2023-10-09T07:35:36;9.47;;;7.27;;
4106;SDS011;21906;50.812;7.132;2023-10-09T07:40:37;7.83;;;7.13;;
4106;SDS011;21906;50.812;7.132;2023-10-09T07:43:21;12.63;;;7.67;;
4106;SDS011;21906;50.812;7.132;2023-10-09T07:46:03;9.77;;;7.60;;
4106;SDS011;21906;50.812;7.132;2023-10-09T07:48:29;8.93;;;8.00;;
4106;SDS011;21906;50.812;7.132;2023-10-09T07:51:13;9.80;;;7.27;;
4106;SDS011;21906;50.812;7.132;2023-10-09T07:53:39;9.30;;;7.27;;
4106;SDS011;21906;50.812;7.132;2023-10-09T07:56:09;9.73;;;8.07;;
4106;SDS011;21906;50.812;7.132;2023-10-09T07:58:38;7.37;;;6.63;;
4106;SDS011;21906;50.812;7.132;2023-10-09T08:01:14;9.33;;;6.90;;
4106;SDS011;21906;50.812;7.132;2023-10-09T08:04:00;7.83;;;7.10;;
4106;SDS011;21906;50.812;7.132;2023-10-09T08:06:53;8.50;;;7.27;;
4106;SDS011;21906;50.812;7.132;2023-10-09T08:09:22;10.30;;;6.57;;
4106;SDS011;21906;50.812;7.132;2023-10-09T08:12:08;8.77;;;7.20;;
4106;SDS011;21906;50.812;7.132;2023-10-09T08:15:03;9.40;;;7.60;;
4106;SDS011;21906;50.812;7.132;2023-10-09T08:17:50;7.93;;;7.03;;
4106;SDS011;21906;50.812;7.132;2023-10-09T08:20:24;8.23;;;7.43;;
4106;SDS011;21906;50.812;7.132;2023-10-09T08:22:53;12.70;;;7.90;;
4106;SDS011;21906;50.812;7.132;2023-10-09T08:25:22;10.63;;;7.30;;
4106;SDS011;21906;50.812;7.132;2023-10-09T08:30:22;8.70;;;7.80;;
4106;SDS011;21906;50.812;7.132;2023-10-09T08:32:50;10.03;;;8.27;;
4106;SDS011;21906;50.812;7.132;2023-10-09T08:35:30;11.70;;;8.10;;
4106;SDS011;21906;50.812;7.132;2023-10-09T08:38:13;8.47;;;7.63;;
4106;SDS011;21906;50.812;7.132;2023-10-09T08:45:41;8.93;;;7.50;;
4106;SDS011;21906;50.812;7.132;2023-10-09T08:48:12;7.63;;;6.83;;
4106;SDS011;21906;50.812;7.132;2023-10-09T08:50:45;9.60;;;7.20;;
4106;SDS011;21906;50.812;7.132;2023-10-09T08:53:15;8.90;;;8.00;;
4106;SDS011;21906;50.812;7.132;2023-10-09T08:55:41;9.40;;;8.00;;
4106;SDS011;21906;50.812;7.132;2023-10-09T08:58:09;9.77;;;7.37;;
4106;SDS011;21906;50.812;7.132;2023-10-09T09:00:51;8.83;;;7.87;;
4106;SDS011;21906;50.812;7.132;2023-10-09T09:03:20;11.23;;;7.20;;
4106;SDS011;21906;50.812;7.132;2023-10-09T09:05:56;13.00;;;8.03;;
4106;SDS011;21906;50.812;7.132;2023-10-09T09:08:26;9.30;;;7.97;;
4106;SDS011;21906;50.812;7.132;2023-10-09T09:11:14;8.83;;;7.93;;
4106;SDS011;21906;50.812;7.132;2023-10-09T09:13:48;8.80;;;7.10;;
4106;SDS011;21906;50.812;7.132;2023-10-09T09:16:40;8.97;;;8.07;;
4106;SDS011;21906;50.812;7.132;2023-10-09T09:19:09;10.40;;;8.50;;
4106;SDS011;21906;50.812;7.132;2023-10-09T09:21:36;9.27;;;7.50;;
4106;SDS011;21906;50.812;7.132;2023-10-09T09:24:06;8.63;;;7.83;;
4106;SDS011;21906;50.812;7.132;2023-10-09T09:27:03;7.70;;;6.90;;
4106;SDS011;21906;50.812;7.132;2023-10-09T09:29:43;8.40;;;7.43;;
4106;SDS011;21906;50.812;7.132;2023-10-09T09:32:31;10.57;;;7.67;;
4106;SDS011;21906;50.812;7.132;2023-10-09T09:35:08;7.70;;;7.00;;
4106;SDS011;21906;50.812;7.132;2023-10-09T09:37:51;10.00;;;7.40;;
4106;SDS011;21906;50.812;7.132;2023-10-09T09:40:18;8.90;;;7.00;;
4106;SDS011;21906;50.812;7.132;2023-10-09T09:42:58;8.30;;;7.10;;
4106;SDS011;21906;50.812;7.132;2023-10-09T09:45:38;8.13;;;7.33;;
4106;SDS011;21906;50.812;7.132;2023-10-09T09:48:11;7.83;;;6.50;;
4106;SDS011;21906;50.812;7.132;2023-10-09T09:50:41;8.43;;;6.83;;
4106;SDS011;21906;50.812;7.132;2023-10-09T09:53:14;8.50;;;6.63;;
4106;SDS011;21906;50.812;7.132;2023-10-09T09:55:47;6.13;;;5.53;;
4106;SDS011;21906;50.812;7.132;2023-10-09T09:58:22;9.30;;;6.33;;
4106;SDS011;21906;50.812;7.132;2023-10-09T10:00:52;7.57;;;6.50;;
4106;SDS011;21906;50.812;7.132;2023-10-09T10:03:31;8.70;;;6.00;;
4106;SDS011;21906;50.812;7.132;2023-10-09T10:06:03;6.40;;;5.80;;
4106;SDS011;21906;50.812;7.132;2023-10-09T10:08:35;6.77;;;5.90;;
4106;SDS011;21906;50.812;7.132;2023-10-09T10:11:04;11.60;;;6.20;;
4106;SDS011;21906;50.812;7.132;2023-10-09T10:14:13;6.50;;;5.80;;
4106;SDS011;21906;50.812;7.132;2023-10-09T10:16:24;7.97;;;5.70;;
4106;SDS011;21906;50.812;7.132;2023-10-09T10:19:00;7.50;;;5.97;;
4106;SDS011;21906;50.812;7.132;2023-10-09T10:21:35;6.67;;;5.93;;
4106;SDS011;21906;50.812;7.132;2023-10-09T10:35:34;6.87;;;4.90;;
4106;SDS011;21906;50.812;7.132;2023-10-09T10:38:51;5.97;;;4.60;;
4106;SDS011;21906;50.812;7.132;2023-10-09T10:41:24;5.40;;;4.60;;
4106;SDS011;21906;50.812;7.132;2023-10-09T10:43:50;5.00;;;4.60;;
4106;SDS011;21906;50.812;7.132;2023-10-09T10:46:15;5.43;;;4.93;;
4106;SDS011;21906;50.812;7.132;2023-10-09T10:49:00;6.70;;;5.30;;
4106;SDS011;21906;50.812;7.132;2023-10-09T10:51:56;5.40;;;4.90;;
4106;SDS011;21906;50.812;7.132;2023-10-09T10:54:44;5.27;;;4.60;;
4106;SDS011;21906;50.812;7.132;2023-10-09T10:57:13;5.37;;;4.80;;
4106;SDS011;21906;50.812;7.132;2023-10-09T10:59:55;6.63;;;4.70;;
4106;SDS011;21906;50.812;7.132;2023-10-09T11:02:43;6.93;;;5.40;;
4106;SDS011;21906;50.812;7.132;2023-10-09T11:05:09;5.80;;;5.20;;
4106;SDS011;21906;50.812;7.132;2023-10-09T11:07:50;4.83;;;4.43;;
4106;SDS011;21906;50.812;7.132;2023-10-09T11:10:24;5.60;;;5.00;;
4106;SDS011;21906;50.812;7.132;2023-10-09T11:12:53;5.50;;;5.00;;
4106;SDS011;21906;50.812;7.132;2023-10-09T11:15:35;7.70;;;5.50;;
4106;SDS011;21906;50.812;7.132;2023-10-09T11:18:22;8.13;;;5.27;;
4106;SDS011;21906;50.812;7.132;2023-10-09T11:20:52;5.60;;;5.00;;
4106;SDS011;21906;50.812;7.132;2023-10-09T11:23:28;6.70;;;5.20;;
4106;SDS011;21906;50.812;7.132;2023-10-09T11:26:01;7.93;;;5.27;;
4106;SDS011;21906;50.812;7.132;2023-10-09T11:32:02;6.30;;;5.17;;
4106;SDS011;21906;50.812;7.132;2023-10-09T11:34:32;5.33;;;4.93;;
4106;SDS011;21906;50.812;7.132;2023-10-09T11:39:38;7.33;;;5.20;;
4106;SDS011;21906;50.812;7.132;2023-10-09T11:42:20;8.07;;;5.40;;
4106;SDS011;21906;50.812;7.132;2023-10-09T11:45:26;11.43;;;6.33;;
4106;SDS011;21906;50.812;7.132;2023-10-09T11:47:56;8.67;;;6.27;;
4106;SDS011;21906;50.812;7.132;2023-10-09T12:05:56;8.37;;;5.53;;
4106;SDS011;21906;50.812;7.132;2023-10-09T12:08:23;12.20;;;6.57;;
4106;SDS011;21906;50.812;7.132;2023-10-09T12:10:54;9.80;;;6.97;;
4106;SDS011;21906;50.812;7.132;2023-10-09T12:13:23;23.60;;;8.20;;
4106;SDS011;21906;50.812;7.132;2023-10-09T12:15:50;10.20;;;6.50;;
4106;SDS011;21906;50.812;7.132;2023-10-09T12:18:20;7.73;;;6.23;;
4106;SDS011;21906;50.812;7.132;2023-10-09T12:20:48;8.30;;;5.03;;
4106;SDS011;21906;50.812;7.132;2023-10-09T12:23:21;9.73;;;6.37;;
4106;SDS011;21906;50.812;7.132;2023-10-09T12:25:49;6.67;;;5.63;;
4106;SDS011;21906;50.812;7.132;2023-10-09T12:28:15;10.70;;;6.00;;
4106;SDS011;21906;50.812;7.132;2023-10-09T12:30:45;7.57;;;5.87;;
4106;SDS011;21906;50.812;7.132;2023-10-09T12:33:15;11.97;;;6.17;;
4106;SDS011;21906;50.812;7.132;2023-10-09T12:35:43;8.97;;;6.13;;
4106;SDS011;21906;50.812;7.132;2023-10-09T12:38:12;7.00;;;5.80;;
4106;SDS011;21906;50.812;7.132;2023-10-09T12:40:46;7.17;;;5.70;;
4106;SDS011;21906;50.812;7.132;2023-10-09T12:43:18;9.07;;;5.63;;
4106;SDS011;21906;50.812;7.132;2023-10-09T12:45:47;7.70;;;6.00;;
4106;SDS011;21906;50.812;7.132;2023-10-09T12:48:13;9.27;;;5.87;;
4106;SDS011;21906;50.812;7.132;2023-10-09T12:50:40;8.80;;;6.17;;
4106;SDS011;21906;50.812;7.132;2023-10-09T12:53:09;5.93;;;5.10;;
4106;SDS011;21906;50.812;7.132;2023-10-09T12:58:05;9.13;;;5.43;;
4106;SDS011;21906;50.812;7.132;2023-10-09T13:00:33;6.17;;;4.83;;
4106;SDS011;21906;50.812;7.132;2023-10-09T13:03:03;6.10;;;5.10;;
4106;SDS011;21906;50.812;7.132;2023-10-09T13:05:39;6.43;;;4.60;;
4106;SDS011;21906;50.812;7.132;2023-10-09T13:08:17;4.90;;;4.50;;
4106;SDS011;21906;50.812;7.132;2023-10-09T13:10:46;9.70;;;5.00;;
4106;SDS011;21906;50.812;7.132;2023-10-09T13:13:20;6.30;;;5.67;;
4106;SDS011;21906;50.812;7.132;2023-10-09T13:15:46;6.83;;;5.40;;
4106;SDS011;21906;50.812;7.132;2023-10-09T13:18:12;6.33;;;4.57;;
4106;SDS011;21906;50.812;7.132;2023-10-09T13:20:40;7.03;;;5.07;;
4106;SDS011;21906;50.812;7.132;2023-10-09T13:23:05;5.43;;;4.93;;
4106;SDS011;21906;50.812;7.132;2023-10-09T13:25:31;6.50;;;5.60;;
4106;SDS011;21906;50.812;7.132;2023-10-09T13:28:04;6.87;;;4.80;;
4106;SDS011;21906;50.812;7.132;2023-10-09T13:30:30;5.30;;;4.77;;
4106;SDS011;21906;50.812;7.132;2023-10-09T13:33:04;6.00;;;5.40;;
4106;SDS011;21906;50.812;7.132;2023-10-09T13:35:30;6.47;;;5.40;;
4106;SDS011;21906;50.812;7.132;2023-10-09T13:38:03;5.70;;;4.83;;
4106;SDS011;21906;50.812;7.132;2023-10-09T13:40:33;7.40;;;6.10;;
4106;SDS011;21906;50.812;7.132;2023-10-09T13:43:02;6.63;;;5.40;;
4106;SDS011;21906;50.812;7.132;2023-10-09T13:45:28;5.53;;;4.90;;
4106;SDS011;21906;50.812;7.132;2023-10-09T13:47:58;5.70;;;5.20;;
4106;SDS011;21906;50.812;7.132;2023-10-09T13:50:27;6.10;;;4.50;;
4106;SDS011;21906;50.812;7.132;2023-10-09T13:52:57;8.23;;;5.10;;
4106;SDS011;21906;50.812;7.132;2023-10-09T13:55:23;5.80;;;5.30;;
4106;SDS011;21906;50.812;7.132;2023-10-09T13:57:56;8.67;;;5.03;;
4106;SDS011;21906;50.812;7.132;2023-10-09T14:00:23;8.10;;;5.43;;
4106;SDS011;21906;50.812;7.132;2023-10-09T14:02:59;5.90;;;4.93;;
4106;SDS011;21906;50.812;7.132;2023-10-09T14:05:37;6.77;;;5.20;;
4106;SDS011;21906;50.812;7.132;2023-10-09T14:08:09;7.70;;;5.40;;
4106;SDS011;21906;50.812;7.132;2023-10-09T14:10:38;7.17;;;5.33;;
4106;SDS011;21906;50.812;7.132;2023-10-09T14:13:04;8.63;;;5.43;;
4106;SDS011;21906;50.812;7.132;2023-10-09T14:15:37;7.03;;;5.37;;
4106;SDS011;21906;50.812;7.132;2023-10-09T14:18:06;6.13;;;5.40;;
4106;SDS011;21906;50.812;7.132;2023-10-09T14:20:36;6.17;;;5.10;;
4106;SDS011;21906;50.812;7.132;2023-10-09T14:23:03;5.83;;;5.23;;
4106;SDS011;21906;50.812;7.132;2023-10-09T14:25:32;7.60;;;5.30;;
4106;SDS011;21906;50.812;7.132;2023-10-09T14:28:03;6.40;;;5.70;;
4106;SDS011;21906;50.812;7.132;2023-10-09T14:30:36;8.90;;;5.57;;
4106;SDS011;21906;50.812;7.132;2023-10-09T14:33:09;7.73;;;5.03;;
4106;SDS011;21906;50.812;7.132;2023-10-09T14:35:39;7.70;;;5.37;;
4106;SDS011;21906;50.812;7.132;2023-10-09T14:38:07;9.40;;;5.70;;
4106;SDS011;21906;50.812;7.132;2023-10-09T14:40:41;6.90;;;5.40;;
4106;SDS011;21906;50.812;7.132;2023-10-09T14:43:09;10.50;;;5.30;;
4106;SDS011;21906;50.812;7.132;2023-10-09T14:45:47;8.87;;;5.53;;
4106;SDS011;21906;50.812;7.132;2023-10-09T14:48:17;5.93;;;5.37;;
4106;SDS011;21906;50.812;7.132;2023-10-09T14:50:49;9.43;;;5.30;;
4106;SDS011;21906;50.812;7.132;2023-10-09T14:53:19;11.27;;;4.97;;
4106;SDS011;21906;50.812;7.132;2023-10-09T14:55:45;11.60;;;5.20;;
4106;SDS011;21906;50.812;7.132;2023-10-09T14:58:13;6.90;;;5.50;;
4106;SDS011;21906;50.812;7.132;2023-10-09T15:00:40;12.20;;;7.20;;
4106;SDS011;21906;50.812;7.132;2023-10-09T15:03:12;9.97;;;5.40;;
4106;SDS011;21906;50.812;7.132;2023-10-09T15:05:40;6.20;;;5.33;;
4106;SDS011;21906;50.812;7.132;2023-10-09T15:08:07;6.30;;;5.50;;
4106;SDS011;21906;50.812;7.132;2023-10-09T15:10:43;7.17;;;5.60;;
4106;SDS011;21906;50.812;7.132;2023-10-09T15:13:10;5.60;;;5.10;;
4106;SDS011;21906;50.812;7.132;2023-10-09T15:15:41;6.40;;;5.80;;
4106;SDS011;21906;50.812;7.132;2023-10-09T15:18:08;6.93;;;5.37;;
4106;SDS011;21906;50.812;7.132;2023-10-09T15:20:37;6.77;;;5.33;;
4106;SDS011;21906;50.812;7.132;2023-10-09T15:23:05;6.73;;;5.80;;
4106;SDS011;21906;50.812;7.132;2023-10-09T15:25:31;8.43;;;6.10;;
4106;SDS011;21906;50.812;7.132;2023-10-09T15:27:59;6.43;;;5.83;;
4106;SDS011;21906;50.812;7.132;2023-10-09T15:30:25;10.17;;;6.17;;
4106;SDS011;21906;50.812;7.132;2023-10-09T15:32:53;6.80;;;6.17;;
4106;SDS011;21906;50.812;7.132;2023-10-09T15:35:22;9.23;;;5.70;;
4106;SDS011;21906;50.812;7.132;2023-10-09T15:37:48;6.53;;;5.40;;
4106;SDS011;21906;50.812;7.132;2023-10-09T15:40:17;6.30;;;5.63;;
4106;SDS011;21906;50.812;7.132;2023-10-09T15:42:49;9.07;;;6.53;;
4106;SDS011;21906;50.812;7.132;2023-10-09T15:45:16;9.53;;;6.00;;
4106;SDS011;21906;50.812;7.132;2023-10-09T15:47:42;7.23;;;6.13;;
4106;SDS011;21906;50.812;7.132;2023-10-09T15:50:10;7.67;;;5.63;;
4106;SDS011;21906;50.812;7.132;2023-10-09T15:52:38;9.90;;;6.50;;
4106;SDS011;21906;50.812;7.132;2023-10-09T15:55:05;6.47;;;5.80;;
4106;SDS011;21906;50.812;7.132;2023-10-09T15:57:41;6.50;;;6.00;;
4106;SDS011;21906;50.812;7.132;2023-10-09T16:00:07;11.27;;;6.53;;
4106;SDS011;21906;50.812;7.132;2023-10-09T16:02:43;9.67;;;6.10;;
4106;SDS011;21906;50.812;7.132;2023-10-09T16:05:10;11.20;;;6.50;;
4106;SDS011;21906;50.812;7.132;2023-10-09T16:07:37;12.87;;;6.70;;
4106;SDS011;21906;50.812;7.132;2023-10-09T16:10:06;6.97;;;6.27;;
4106;SDS011;21906;50.812;7.132;2023-10-09T16:12:37;7.57;;;6.83;;
4106;SDS011;21906;50.812;7.132;2023-10-09T16:15:08;9.20;;;6.20;;
4106;SDS011;21906;50.812;7.132;2023-10-09T16:17:35;8.93;;;5.47;;
4106;SDS011;21906;50.812;7.132;2023-10-09T16:20:05;6.17;;;5.57;;
4106;SDS011;21906;50.812;7.132;2023-10-09T16:22:39;9.97;;;6.20;;